Time;durP1;ratioP1;P1;durP2;ratioP2;P2;SDS_P1;SDS_P2;PMS_P1;PMS_P2;Temp;Humidity;BMP_temperature;BMP_pressure;BME280_temperature;BME280_humidity;BME280_pressure;Samples;Min_cycle;Max_cycle;Signal;HPM_P1;HPM_P2
2023/06/13 00:01:48;;;;;;;;;19.00;18.00;;;;;;;;5029603;28;51580;-72
2023/06/13 00:04:13;;;;;;;;;24.67;23.00;;;;;;;;5015596;28;51322;-72
2023/06/13 00:06:38;;;;;;;;;23.67;22.67;;;;;;;;5021721;28;51136;-71
2023/06/13 00:09:03;;;;;;;;;23.75;23.25;;;;;;;;5029670;28;51112;-71
2023/06/13 00:11:28;;;;;;;;;24.67;23.67;;;;;;;;5026226;28;51217;-71
2023/06/13 00:13:55;;;;;;;;;21.67;21.67;;;;;;;;5029792;28;50988;-72
2023/06/13 00:16:25;;;;;;;;;19.00;18.50;;;;;;;;5022382;28;51054;-73
2023/06/13 00:18:52;;;;;;;;;24.50;24.00;;;;;;;;5030967;28;50927;-73
2023/06/13 00:21:17;;;;;;;;;25.67;25.00;;;;;;;;5023674;28;53810;-72
2023/06/13 00:23:42;;;;;;;;;22.00;21.33;;;;;;;;5016195;28;51021;-73
2023/06/13 00:26:07;;;;;;;;;26.25;25.50;;;;;;;;5029630;28;51300;-74
2023/06/13 00:28:33;;;;;;;;;25.25;25.25;;;;;;;;5026412;28;51321;-74
2023/06/13 00:30:58;;;;;;;;;25.67;23.67;;;;;;;;5020196;28;51177;-73
2023/06/13 00:33:27;;;;;;;;;25.00;25.00;;;;;;;;5023650;28;51621;-73
2023/06/13 00:35:52;;;;;;;;;28.33;24.00;;;;;;;;5017744;28;51138;-73
2023/06/13 00:38:21;;;;;;;;;27.67;27.67;;;;;;;;5015079;28;50942;-74
2023/06/13 00:40:46;;;;;;;;;30.00;27.33;;;;;;;;5020105;28;52763;-72
2023/06/13 00:43:11;;;;;;;;;27.00;25.67;;;;;;;;5030084;28;51175;-72
2023/06/13 00:45:37;;;;;;;;;22.33;22.33;;;;;;;;5032314;28;51034;-73
2023/06/13 00:48:03;;;;;;;;;24.67;21.33;;;;;;;;5018086;28;51231;-73
2023/06/13 00:50:30;;;;;;;;;21.50;20.75;;;;;;;;5011635;28;53421;-73
2023/06/13 00:52:57;;;;;;;;;24.00;24.00;;;;;;;;5019488;28;51083;-71
2023/06/13 00:55:24;;;;;;;;;25.00;24.67;;;;;;;;5016693;28;51158;-74
2023/06/13 00:57:51;;;;;;;;;23.67;23.00;;;;;;;;5029554;28;50966;-76
2023/06/13 01:00:18;;;;;;;;;28.67;24.67;;;;;;;;5030118;28;51182;-75
2023/06/13 01:02:44;;;;;;;;;24.67;24.33;;;;;;;;5029912;28;51118;-74
2023/06/13 01:05:11;;;;;;;;;21.33;21.33;;;;;;;;5023892;28;51170;-74
2023/06/13 01:07:38;;;;;;;;;28.50;27.25;;;;;;;;5009723;28;50997;-74
2023/06/13 01:10:04;;;;;;;;;23.75;23.75;;;;;;;;5023929;28;51926;-73
2023/06/13 01:12:33;;;;;;;;;26.50;25.25;;;;;;;;5024898;28;51262;-73
2023/06/13 01:15:01;;;;;;;;;22.75;21.75;;;;;;;;5023959;28;51084;-75
2023/06/13 01:17:30;;;;;;;;;21.00;21.00;;;;;;;;5016934;28;50957;-74
2023/06/13 01:19:59;;;;;;;;;27.75;27.00;;;;;;;;5028283;28;52291;-74
2023/06/13 01:22:42;;;;;;;;;27.00;25.50;;;;;;;;5026319;28;51288;-75
2023/06/13 01:25:10;;;;;;;;;25.67;25.67;;;;;;;;5019943;28;51285;-74
2023/06/13 01:27:36;;;;;;;;;26.67;25.33;;;;;;;;5011491;28;51216;-77
2023/06/13 01:30:03;;;;;;;;;25.00;24.67;;;;;;;;5034678;28;51823;-73
2023/06/13 01:32:29;;;;;;;;;26.67;25.67;;;;;;;;5024444;28;51417;-74
2023/06/13 01:34:55;;;;;;;;;23.00;22.67;;;;;;;;5032798;28;50936;-74
2023/06/13 01:37:20;;;;;;;;;26.00;23.50;;;;;;;;5027745;28;51504;-73
2023/06/13 01:39:45;;;;;;;;;26.50;26.25;;;;;;;;5031124;28;51202;-74
2023/06/13 01:42:11;;;;;;;;;24.00;24.00;;;;;;;;5030062;28;51634;-73
2023/06/13 01:44:36;;;;;;;;;25.00;25.00;;;;;;;;5032534;28;51512;-74
2023/06/13 01:47:07;;;;;;;;;22.33;22.00;;;;;;;;5020419;28;51240;-74
2023/06/13 01:49:32;;;;;;;;;26.00;25.50;;;;;;;;5033009;28;52968;-73
2023/06/13 01:52:03;;;;;;;;;20.00;19.75;;;;;;;;5031209;28;51041;-74
2023/06/13 01:54:31;;;;;;;;;26.25;26.00;;;;;;;;5027528;28;51003;-74
2023/06/13 01:56:58;;;;;;;;;26.67;24.67;;;;;;;;5025738;28;51008;-75
2023/06/13 01:59:25;;;;;;;;;26.33;23.33;;;;;;;;5027850;28;51102;-73
2023/06/13 02:01:50;;;;;;;;;28.50;25.75;;;;;;;;5028702;28;51275;-73
2023/06/13 02:04:15;;;;;;;;;25.33;25.00;;;;;;;;5031037;28;51040;-74
2023/06/13 02:06:41;;;;;;;;;29.50;26.50;;;;;;;;5033144;28;51225;-73
2023/06/13 02:09:06;;;;;;;;;21.67;20.00;;;;;;;;5025470;28;52846;-75
2023/06/13 02:11:32;;;;;;;;;24.33;24.00;;;;;;;;5030228;28;51225;-74
2023/06/13 02:13:57;;;;;;;;;25.75;25.75;;;;;;;;5028058;28;51825;-76
2023/06/13 02:16:25;;;;;;;;;28.00;26.50;;;;;;;;5032795;28;51004;-74
2023/06/13 02:18:50;;;;;;;;;33.25;30.00;;;;;;;;5028618;28;52809;-72
2023/06/13 02:21:15;;;;;;;;;27.50;25.25;;;;;;;;5019003;28;51332;-74
2023/06/13 02:23:40;;;;;;;;;28.50;27.25;;;;;;;;5020310;28;51318;-74
2023/06/13 02:26:07;;;;;;;;;25.00;24.00;;;;;;;;5013937;28;50993;-75
2023/06/13 02:28:32;;;;;;;;;27.50;27.00;;;;;;;;5021482;28;51609;-73
2023/06/13 02:30:58;;;;;;;;;23.50;23.50;;;;;;;;5017290;28;52381;-75
2023/06/13 02:33:23;;;;;;;;;27.67;26.67;;;;;;;;5033515;28;51348;-73
2023/06/13 02:35:48;;;;;;;;;27.00;26.67;;;;;;;;5034566;28;50914;-73
2023/06/13 02:38:13;;;;;;;;;28.00;26.00;;;;;;;;5031156;28;50965;-74
2023/06/13 02:40:39;;;;;;;;;29.75;27.75;;;;;;;;5031346;28;51333;-75
2023/06/13 02:43:04;;;;;;;;;24.33;23.33;;;;;;;;5030297;28;51214;-73
2023/06/13 02:45:30;;;;;;;;;25.75;25.00;;;;;;;;5033824;28;51104;-75
2023/06/13 02:47:55;;;;;;;;;23.50;23.50;;;;;;;;5032456;28;51954;-75
2023/06/13 02:50:21;;;;;;;;;28.25;27.50;;;;;;;;5033723;28;50907;-75
2023/06/13 02:52:47;;;;;;;;;27.00;26.33;;;;;;;;5030189;28;51281;-75
2023/06/13 02:55:12;;;;;;;;;28.00;24.00;;;;;;;;5020445;28;51040;-74
2023/06/13 02:57:38;;;;;;;;;27.25;27.25;;;;;;;;5026729;28;51764;-74
2023/06/13 03:00:11;;;;;;;;;26.25;25.50;;;;;;;;5032915;28;50957;-74
2023/06/13 03:02:36;;;;;;;;;30.25;27.50;;;;;;;;5019586;28;51159;-74
2023/06/13 03:05:03;;;;;;;;;26.50;25.75;;;;;;;;5020878;28;51071;-75
2023/06/13 03:07:31;;;;;;;;;25.25;24.75;;;;;;;;5031400;28;51864;-73
2023/06/13 03:09:56;;;;;;;;;26.25;25.25;;;;;;;;5029193;28;51146;-75
2023/06/13 03:12:21;;;;;;;;;22.75;22.75;;;;;;;;5024918;28;51043;-73
2023/06/13 03:14:47;;;;;;;;;28.50;27.25;;;;;;;;5022630;28;52732;-73
2023/06/13 03:17:12;;;;;;;;;26.00;25.00;;;;;;;;5029863;28;51935;-75
2023/06/13 03:19:37;;;;;;;;;25.50;25.50;;;;;;;;5032465;28;51166;-75
2023/06/13 03:22:02;;;;;;;;;26.00;24.50;;;;;;;;5026473;28;51212;-75
2023/06/13 03:24:28;;;;;;;;;24.67;24.67;;;;;;;;5032186;28;50928;-73
2023/06/13 03:26:53;;;;;;;;;28.00;26.25;;;;;;;;5031745;28;52703;-75
2023/06/13 03:29:18;;;;;;;;;29.50;28.50;;;;;;;;5026935;28;51056;-76
2023/06/13 03:31:43;;;;;;;;;29.25;28.00;;;;;;;;5027485;28;50970;-75
2023/06/13 03:34:09;;;;;;;;;28.00;27.00;;;;;;;;5013702;28;51366;-75
2023/06/13 03:36:34;;;;;;;;;27.33;23.67;;;;;;;;5032312;28;51911;-74
2023/06/13 03:38:59;;;;;;;;;25.00;24.00;;;;;;;;5024322;28;50970;-74
2023/06/13 03:41:25;;;;;;;;;21.75;20.50;;;;;;;;5014154;28;50800;-74
2023/06/13 03:43:50;;;;;;;;;28.00;27.50;;;;;;;;5033000;28;51130;-74
2023/06/13 03:46:15;;;;;;;;;29.50;27.75;;;;;;;;5031179;28;52396;-74
2023/06/13 03:48:41;;;;;;;;;26.50;24.50;;;;;;;;5032115;28;51115;-74
2023/06/13 03:51:06;;;;;;;;;27.00;27.00;;;;;;;;5028236;28;51129;-75
2023/06/13 03:53:31;;;;;;;;;24.75;24.75;;;;;;;;5021794;28;51130;-75
2023/06/13 03:55:56;;;;;;;;;27.67;26.00;;;;;;;;5025129;28;53303;-74
2023/06/13 03:58:22;;;;;;;;;26.33;25.33;;;;;;;;5026532;28;51214;-74
2023/06/13 04:00:47;;;;;;;;;26.33;26.33;;;;;;;;5029544;28;51238;-73
2023/06/13 04:03:13;;;;;;;;;25.50;24.50;;;;;;;;5023673;28;51220;-75
2023/06/13 04:05:38;;;;;;;;;23.00;21.67;;;;;;;;5012750;28;51072;-75
2023/06/13 04:08:06;;;;;;;;;24.00;23.00;;;;;;;;5021180;28;51214;-74
2023/06/13 04:10:31;;;;;;;;;26.75;26.75;;;;;;;;5032061;28;51112;-74
2023/06/13 04:12:56;;;;;;;;;23.75;23.50;;;;;;;;5030310;28;51057;-73
2023/06/13 04:15:22;;;;;;;;;23.33;22.67;;;;;;;;5020045;28;52767;-75
2023/06/13 04:17:47;;;;;;;;;26.75;26.00;;;;;;;;5020455;28;50941;-74
2023/06/13 04:20:14;;;;;;;;;28.00;26.25;;;;;;;;5016252;28;51021;-74
2023/06/13 04:22:41;;;;;;;;;24.33;24.00;;;;;;;;5015982;28;51046;-74
2023/06/13 04:25:07;;;;;;;;;25.00;23.25;;;;;;;;5026615;28;51835;-74
2023/06/13 04:27:34;;;;;;;;;28.25;26.75;;;;;;;;5032203;28;51036;-75
2023/06/13 04:30:00;;;;;;;;;30.75;27.75;;;;;;;;5017003;28;51150;-73
2023/06/13 04:32:27;;;;;;;;;27.00;25.50;;;;;;;;5024762;28;51208;-76
2023/06/13 04:34:53;;;;;;;;;28.50;27.00;;;;;;;;5029974;28;52759;-74
2023/06/13 04:37:23;;;;;;;;;29.25;25.75;;;;;;;;5026525;28;51147;-74
2023/06/13 04:39:49;;;;;;;;;26.50;26.25;;;;;;;;5018108;28;51228;-74
2023/06/13 04:42:21;;;;;;;;;26.25;26.25;;;;;;;;5021421;28;51275;-73
2023/06/13 04:44:48;;;;;;;;;25.25;23.75;;;;;;;;5031337;28;51948;-75
2023/06/13 04:47:13;;;;;;;;;27.75;26.75;;;;;;;;5030375;28;51224;-74
2023/06/13 04:49:41;;;;;;;;;26.00;25.50;;;;;;;;5029961;28;51232;-73
2023/06/13 04:52:06;;;;;;;;;26.00;26.00;;;;;;;;5021055;28;51191;-76
2023/06/13 04:54:33;;;;;;;;;30.00;27.00;;;;;;;;5020185;28;53470;-75
2023/06/13 04:56:58;;;;;;;;;24.50;23.50;;;;;;;;5023701;28;50996;-75
2023/06/13 04:59:23;;;;;;;;;30.25;29.00;;;;;;;;5013221;28;51263;-75
2023/06/13 05:01:49;;;;;;;;;29.50;28.25;;;;;;;;5029453;28;51027;-74
2023/06/13 05:04:14;;;;;;;;;28.00;26.50;;;;;;;;5024454;28;53077;-74
2023/06/13 05:06:40;;;;;;;;;25.00;24.50;;;;;;;;5027007;28;50985;-74
2023/06/13 05:09:06;;;;;;;;;26.50;26.25;;;;;;;;5025634;28;50985;-74
2023/06/13 05:11:31;;;;;;;;;25.00;24.00;;;;;;;;5033979;28;51277;-76
2023/06/13 05:13:56;;;;;;;;;30.00;26.75;;;;;;;;5033989;28;52045;-75
2023/06/13 05:16:22;;;;;;;;;24.25;24.00;;;;;;;;5032806;28;51238;-75
2023/06/13 05:18:49;;;;;;;;;22.25;21.50;;;;;;;;5031028;28;50942;-75
2023/06/13 05:21:16;;;;;;;;;26.50;26.25;;;;;;;;5033867;28;51220;-75
2023/06/13 05:23:43;;;;;;;;;26.00;25.33;;;;;;;;5028268;28;52815;-75
2023/06/13 05:26:08;;;;;;;;;29.00;29.00;;;;;;;;5014750;28;51219;-75
2023/06/13 05:28:34;;;;;;;;;28.50;27.00;;;;;;;;5022581;28;50984;-75
2023/06/13 05:31:01;;;;;;;;;24.25;24.25;;;;;;;;5031877;28;51202;-74
2023/06/13 05:33:26;;;;;;;;;24.75;24.00;;;;;;;;5033374;28;52811;-74
2023/06/13 05:35:51;;;;;;;;;26.75;25.25;;;;;;;;5016865;28;51139;-74
2023/06/13 05:38:16;;;;;;;;;23.50;23.50;;;;;;;;5032392;28;51031;-75
2023/06/13 05:40:41;;;;;;;;;27.75;25.25;;;;;;;;5017058;28;51753;-75
2023/06/13 05:43:08;;;;;;;;;29.75;29.00;;;;;;;;5032011;28;51990;-74
2023/06/13 05:45:33;;;;;;;;;27.25;26.25;;;;;;;;5034826;28;50978;-74
2023/06/13 05:47:58;;;;;;;;;30.00;26.75;;;;;;;;5034104;28;51278;-74
2023/06/13 05:50:23;;;;;;;;;24.25;24.25;;;;;;;;5034450;28;51157;-74
2023/06/13 05:52:48;;;;;;;;;27.25;27.00;;;;;;;;5026112;28;51913;-75
2023/06/13 05:55:14;;;;;;;;;29.75;29.25;;;;;;;;5030166;28;51046;-74
2023/06/13 05:57:39;;;;;;;;;29.00;28.25;;;;;;;;5019526;28;51223;-75
2023/06/13 06:00:07;;;;;;;;;25.25;24.50;;;;;;;;5014590;28;51314;-74
2023/06/13 06:02:32;;;;;;;;;25.33;25.00;;;;;;;;5019636;28;52058;-74
2023/06/13 06:05:00;;;;;;;;;23.25;22.50;;;;;;;;5018875;28;51676;-74
2023/06/13 06:07:25;;;;;;;;;27.25;27.25;;;;;;;;5019327;28;51248;-74
2023/06/13 06:09:50;;;;;;;;;28.75;28.00;;;;;;;;5017344;28;52305;-74
2023/06/13 06:12:15;;;;;;;;;27.50;26.00;;;;;;;;5022541;28;51715;-72
2023/06/13 06:14:41;;;;;;;;;27.00;26.25;;;;;;;;5026542;28;51272;-74
2023/06/13 06:17:06;;;;;;;;;26.00;24.75;;;;;;;;5028776;28;51104;-73
2023/06/13 06:19:31;;;;;;;;;26.00;25.50;;;;;;;;5018430;28;51442;-74
2023/06/13 06:21:56;;;;;;;;;24.75;24.50;;;;;;;;5029575;28;51736;-73
2023/06/13 06:24:23;;;;;;;;;22.75;22.50;;;;;;;;5019715;28;51201;-74
2023/06/13 06:26:48;;;;;;;;;29.00;27.67;;;;;;;;5025778;28;51229;-73
2023/06/13 06:29:13;;;;;;;;;27.50;26.25;;;;;;;;5017183;28;51442;-76
2023/06/13 06:31:39;;;;;;;;;24.33;23.67;;;;;;;;5029534;28;52183;-75
2023/06/13 06:34:04;;;;;;;;;22.67;22.33;;;;;;;;5026190;28;51000;-74
2023/06/13 06:36:29;;;;;;;;;24.33;24.33;;;;;;;;5020735;28;51068;-76
2023/06/13 06:38:54;;;;;;;;;24.33;24.00;;;;;;;;5026101;28;51020;-74
2023/06/13 06:41:20;;;;;;;;;23.67;21.67;;;;;;;;5013301;28;51039;-76
2023/06/13 06:43:45;;;;;;;;;23.33;22.33;;;;;;;;5021637;28;50973;-74
2023/06/13 06:46:10;;;;;;;;;21.67;20.00;;;;;;;;5026681;28;51065;-74
2023/06/13 06:48:35;;;;;;;;;23.00;23.00;;;;;;;;5022942;28;51394;-76
2023/06/13 06:51:01;;;;;;;;;22.00;22.00;;;;;;;;5018806;28;51041;-75
2023/06/13 06:53:26;;;;;;;;;20.00;20.00;;;;;;;;5024128;28;51125;-77
2023/06/13 06:55:51;;;;;;;;;19.67;19.67;;;;;;;;5032598;28;51040;-74
2023/06/13 06:58:16;;;;;;;;;23.00;22.33;;;;;;;;5033949;28;50940;-73
2023/06/13 07:00:41;;;;;;;;;22.00;21.00;;;;;;;;5031255;28;50926;-75
2023/06/13 07:03:07;;;;;;;;;21.00;19.67;;;;;;;;5032253;28;50898;-75
2023/06/13 07:05:32;;;;;;;;;21.67;20.00;;;;;;;;5026626;28;51132;-76
2023/06/13 07:07:58;;;;;;;;;19.00;19.00;;;;;;;;5018479;28;51069;-75
2023/06/13 07:10:25;;;;;;;;;21.67;21.33;;;;;;;;5031507;28;50956;-76
2023/06/13 07:12:50;;;;;;;;;19.33;18.33;;;;;;;;5032225;28;50958;-75
2023/06/13 07:15:15;;;;;;;;;18.00;18.00;;;;;;;;5032083;28;50882;-76
2023/06/13 07:17:40;;;;;;;;;21.00;20.67;;;;;;;;5021045;28;51303;-76
2023/06/13 07:20:08;;;;;;;;;22.00;21.33;;;;;;;;5029562;28;51050;-76
2023/06/13 07:22:33;;;;;;;;;22.00;22.00;;;;;;;;5022807;28;51249;-75
2023/06/13 07:24:58;;;;;;;;;24.00;22.00;;;;;;;;5012465;28;51471;-75
2023/06/13 07:27:23;;;;;;;;;20.33;20.00;;;;;;;;5014941;28;51199;-76
2023/06/13 07:29:49;;;;;;;;;21.75;21.50;;;;;;;;5032764;28;51052;-75
2023/06/13 07:32:14;;;;;;;;;19.00;19.00;;;;;;;;5013955;28;51049;-75
2023/06/13 07:34:39;;;;;;;;;21.33;21.33;;;;;;;;5031671;28;51233;-76
2023/06/13 07:37:05;;;;;;;;;24.67;23.33;;;;;;;;5021841;28;51275;-76
2023/06/13 07:39:30;;;;;;;;;20.00;19.67;;;;;;;;5022257;28;51112;-75
2023/06/13 07:41:55;;;;;;;;;21.00;19.67;;;;;;;;5031057;28;51080;-75
2023/06/13 07:44:21;;;;;;;;;20.00;20.00;;;;;;;;5031541;28;51270;-74
2023/06/13 07:46:47;;;;;;;;;21.75;21.75;;;;;;;;5027948;28;51297;-75
2023/06/13 07:49:12;;;;;;;;;20.75;20.00;;;;;;;;5030374;28;52767;-75
2023/06/13 07:51:38;;;;;;;;;19.00;19.00;;;;;;;;5016450;28;51040;-74
2023/06/13 07:54:03;;;;;;;;;21.00;21.00;;;;;;;;5032412;28;50972;-75
2023/06/13 07:56:28;;;;;;;;;34.25;31.00;;;;;;;;5030041;28;51065;-73
2023/06/13 07:58:54;;;;;;;;;20.00;20.00;;;;;;;;5023988;28;51261;-74
2023/06/13 08:01:22;;;;;;;;;18.33;18.33;;;;;;;;5015139;28;51463;-74
2023/06/13 08:03:47;;;;;;;;;16.00;16.00;;;;;;;;5012673;28;51025;-74
2023/06/13 08:06:12;;;;;;;;;17.75;17.25;;;;;;;;5012166;28;51465;-73
2023/06/13 08:08:38;;;;;;;;;17.25;17.25;;;;;;;;5029407;28;52076;-74
2023/06/13 08:11:03;;;;;;;;;16.50;16.50;;;;;;;;5019776;28;51079;-73
2023/06/13 08:13:28;;;;;;;;;15.00;14.67;;;;;;;;5017229;28;50984;-73
2023/06/13 08:15:53;;;;;;;;;16.50;16.50;;;;;;;;5020275;28;50979;-74
2023/06/13 08:18:18;;;;;;;;;20.00;20.00;;;;;;;;5015565;28;52044;-74
2023/06/13 08:20:44;;;;;;;;;18.25;18.25;;;;;;;;5031349;28;51139;-74
2023/06/13 08:23:09;;;;;;;;;19.33;18.33;;;;;;;;5031682;28;51048;-74
2023/06/13 08:25:34;;;;;;;;;17.33;17.00;;;;;;;;5022130;28;51225;-74
2023/06/13 08:28:00;;;;;;;;;19.00;18.00;;;;;;;;5013638;28;51002;-74
2023/06/13 08:30:25;;;;;;;;;18.25;18.00;;;;;;;;5032223;28;50990;-74
2023/06/13 08:32:53;;;;;;;;;16.75;16.50;;;;;;;;5032084;28;51034;-73
2023/06/13 08:35:19;;;;;;;;;18.75;17.50;;;;;;;;5031409;28;51068;-74
2023/06/13 08:37:44;;;;;;;;;16.00;16.00;;;;;;;;5031852;28;51690;-74
2023/06/13 08:40:10;;;;;;;;;16.50;15.75;;;;;;;;5014776;28;51073;-74
2023/06/13 08:42:38;;;;;;;;;19.75;19.25;;;;;;;;5015135;28;51088;-75
2023/06/13 08:45:03;;;;;;;;;18.00;18.00;;;;;;;;5034208;28;51083;-73
2023/06/13 08:47:29;;;;;;;;;18.25;17.25;;;;;;;;5023520;28;51190;-75
2023/06/13 08:49:54;;;;;;;;;18.50;18.50;;;;;;;;5038906;28;51122;-73
2023/06/13 08:52:20;;;;;;;;;18.25;18.25;;;;;;;;5038607;28;54401;-73
2023/06/13 08:54:50;;;;;;;;;15.50;15.50;;;;;;;;5028261;28;51204;-74
2023/06/13 08:57:17;;;;;;;;;18.75;18.75;;;;;;;;5034282;28;51257;-74
2023/06/13 08:59:46;;;;;;;;;21.00;20.50;;;;;;;;5028815;28;51142;-74
2023/06/13 09:02:14;;;;;;;;;20.25;19.75;;;;;;;;5031990;28;51023;-73
2023/06/13 09:04:39;;;;;;;;;16.75;16.25;;;;;;;;5020761;28;51096;-73
2023/06/13 09:07:05;;;;;;;;;16.25;16.25;;;;;;;;5025965;28;51002;-74
2023/06/13 09:09:31;;;;;;;;;17.75;17.25;;;;;;;;5033437;28;51204;-74
2023/06/13 09:11:58;;;;;;;;;16.50;16.50;;;;;;;;5028770;28;51071;-74
2023/06/13 09:14:23;;;;;;;;;17.75;17.75;;;;;;;;5033492;28;51145;-73
2023/06/13 09:16:49;;;;;;;;;17.50;17.50;;;;;;;;5038738;28;51218;-73
2023/06/13 09:19:15;;;;;;;;;17.75;17.00;;;;;;;;5026415;28;51931;-72
2023/06/13 09:21:40;;;;;;;;;17.75;17.00;;;;;;;;5012515;28;51373;-73
2023/06/13 09:24:06;;;;;;;;;17.00;16.00;;;;;;;;5036603;28;51105;-74
2023/06/13 09:26:31;;;;;;;;;19.00;18.25;;;;;;;;5033964;28;52044;-74
2023/06/13 09:28:57;;;;;;;;;18.00;17.50;;;;;;;;5015370;28;50918;-73
2023/06/13 09:31:22;;;;;;;;;17.75;17.75;;;;;;;;5044001;28;50892;-73
2023/06/13 09:33:47;;;;;;;;;17.50;16.50;;;;;;;;5032179;28;51379;-74
2023/06/13 09:36:13;;;;;;;;;18.00;17.25;;;;;;;;5027133;28;51324;-74
2023/06/13 09:38:42;;;;;;;;;17.75;17.25;;;;;;;;5030702;28;51179;-74
2023/06/13 09:41:08;;;;;;;;;16.00;16.00;;;;;;;;5033346;28;51160;-74
2023/06/13 09:43:34;;;;;;;;;18.75;18.25;;;;;;;;5029348;28;50985;-73
2023/06/13 09:46:00;;;;;;;;;17.00;17.00;;;;;;;;5016051;28;51266;-74
2023/06/13 09:48:25;;;;;;;;;15.75;15.75;;;;;;;;5037794;28;51122;-74
2023/06/13 09:50:51;;;;;;;;;16.25;16.25;;;;;;;;5036779;28;51034;-73
2023/06/13 09:53:17;;;;;;;;;17.25;17.25;;;;;;;;5018825;28;51423;-75
2023/06/13 09:55:42;;;;;;;;;14.75;14.50;;;;;;;;5041932;28;51738;-72
2023/06/13 09:58:08;;;;;;;;;20.50;19.00;;;;;;;;5031832;28;51073;-72
2023/06/13 10:00:33;;;;;;;;;16.25;16.25;;;;;;;;5041718;28;51062;-73
2023/06/13 10:02:59;;;;;;;;;17.50;16.50;;;;;;;;5014203;28;51170;-73
2023/06/13 10:05:25;;;;;;;;;16.50;16.50;;;;;;;;5029320;28;51252;-72
2023/06/13 10:07:51;;;;;;;;;17.00;16.25;;;;;;;;5015103;28;51116;-73
2023/06/13 10:10:16;;;;;;;;;19.25;18.75;;;;;;;;5028526;28;51158;-73
2023/06/13 10:12:47;;;;;;;;;17.25;17.25;;;;;;;;5026243;28;51393;-72
2023/06/13 10:15:14;;;;;;;;;19.00;19.00;;;;;;;;5032603;28;51324;-74
2023/06/13 10:17:41;;;;;;;;;14.25;14.25;;;;;;;;5044546;28;51069;-73
2023/06/13 10:20:10;;;;;;;;;18.50;17.50;;;;;;;;5022864;28;51162;-73
2023/06/13 10:22:36;;;;;;;;;20.75;20.75;;;;;;;;5034505;28;51048;-73
2023/06/13 10:25:03;;;;;;;;;18.00;18.00;;;;;;;;5030574;28;51083;-73
2023/06/13 10:27:28;;;;;;;;;17.50;17.00;;;;;;;;5022970;28;51165;-74
2023/06/13 10:29:53;;;;;;;;;18.50;18.50;;;;;;;;5016273;28;51731;-73
2023/06/13 10:32:29;;;;;;;;;17.75;17.00;;;;;;;;5029540;28;51058;-72
2023/06/13 10:35:15;;;;;;;;;18.00;18.00;;;;;;;;5026381;28;51684;-73
2023/06/13 10:37:53;;;;;;;;;18.00;18.00;;;;;;;;5022332;28;51207;-73
2023/06/13 10:40:30;;;;;;;;;18.50;18.50;;;;;;;;5029334;28;51013;-72
2023/06/13 10:43:02;;;;;;;;;18.00;18.00;;;;;;;;5016798;28;51317;-73
2023/06/13 10:45:29;;;;;;;;;17.67;17.33;;;;;;;;5012424;28;51946;-72
2023/06/13 10:47:57;;;;;;;;;19.25;19.00;;;;;;;;5012914;28;50969;-71
2023/06/13 10:50:22;;;;;;;;;18.00;18.00;;;;;;;;5033011;28;51535;-73
2023/06/13 10:52:48;;;;;;;;;21.00;19.50;;;;;;;;5030698;28;51056;-71
2023/06/13 10:55:23;;;;;;;;;18.00;18.00;;;;;;;;5016377;28;51155;-72
2023/06/13 10:57:50;;;;;;;;;21.50;21.50;;;;;;;;5032842;28;51063;-73
2023/06/13 11:00:33;;;;;;;;;20.00;19.00;;;;;;;;5032128;28;51060;-73
2023/06/13 11:02:58;;;;;;;;;19.00;18.75;;;;;;;;5032727;28;51361;-73
2023/06/13 11:05:23;;;;;;;;;17.00;17.00;;;;;;;;5030472;28;53478;-72
2023/06/13 11:07:49;;;;;;;;;17.00;17.00;;;;;;;;5014233;28;50926;-73
2023/06/13 11:10:15;;;;;;;;;14.75;13.75;;;;;;;;5026732;28;51054;-71
2023/06/13 11:12:41;;;;;;;;;17.00;17.00;;;;;;;;5014751;28;51202;-73
2023/06/13 11:15:19;;;;;;;;;17.50;16.75;;;;;;;;5011191;28;52644;-74
2023/06/13 11:18:00;;;;;;;;;16.33;16.33;;;;;;;;5012204;28;51401;-72
2023/06/13 11:20:25;;;;;;;;;15.33;14.33;;;;;;;;5010323;28;51087;-74
2023/06/13 11:22:50;;;;;;;;;16.00;15.33;;;;;;;;5012153;28;51325;-73
2023/06/13 11:25:16;;;;;;;;;16.00;16.00;;;;;;;;5011719;28;50963;-72
2023/06/13 11:27:41;;;;;;;;;15.67;15.67;;;;;;;;5027318;28;51036;-73
2023/06/13 11:30:07;;;;;;;;;16.33;16.00;;;;;;;;5033592;28;50815;-73
2023/06/13 11:32:34;;;;;;;;;15.00;15.00;;;;;;;;5032782;28;51036;-73
2023/06/13 11:35:00;;;;;;;;;20.00;20.00;;;;;;;;5032941;28;52763;-73
2023/06/13 11:37:38;;;;;;;;;17.00;17.00;;;;;;;;5030556;28;51369;-72
2023/06/13 11:40:08;;;;;;;;;16.67;16.67;;;;;;;;5031718;28;51075;-73
2023/06/13 11:42:33;;;;;;;;;15.33;15.00;;;;;;;;5032275;28;51278;-73
2023/06/13 11:44:58;;;;;;;;;14.67;14.33;;;;;;;;5017326;28;51842;-73
2023/06/13 11:47:24;;;;;;;;;18.00;17.75;;;;;;;;5031318;28;51061;-73
2023/06/13 11:49:56;;;;;;;;;15.00;15.00;;;;;;;;5015380;28;51541;-72
2023/06/13 11:52:22;;;;;;;;;14.33;14.33;;;;;;;;5012977;28;50915;-73
2023/06/13 11:54:47;;;;;;;;;17.00;16.33;;;;;;;;5011039;28;51929;-73
2023/06/13 11:57:14;;;;;;;;;14.00;14.00;;;;;;;;5014201;28;51790;-72
2023/06/13 11:59:40;;;;;;;;;16.33;15.33;;;;;;;;5025421;28;51330;-72
2023/06/13 12:02:06;;;;;;;;;17.33;17.00;;;;;;;;5011572;28;51283;-72
2023/06/13 12:04:31;;;;;;;;;15.33;15.33;;;;;;;;5011774;28;51943;-73
2023/06/13 12:06:57;;;;;;;;;14.33;13.33;;;;;;;;5029740;28;51007;-73
2023/06/13 12:09:22;;;;;;;;;17.00;17.00;;;;;;;;5030013;28;51216;-72
2023/06/13 12:11:49;;;;;;;;;17.33;16.33;;;;;;;;5026570;28;51172;-72
2023/06/13 12:14:18;;;;;;;;;14.33;14.00;;;;;;;;5012669;28;52070;-74
2023/06/13 12:16:44;;;;;;;;;15.00;14.67;;;;;;;;5025623;28;51531;-73
2023/06/13 12:19:09;;;;;;;;;14.67;14.67;;;;;;;;5029747;28;51166;-72
2023/06/13 12:21:36;;;;;;;;;16.67;16.67;;;;;;;;5031595;28;51044;-72
2023/06/13 12:24:06;;;;;;;;;16.00;14.67;;;;;;;;5031861;28;52870;-72
2023/06/13 12:26:34;;;;;;;;;15.00;15.00;;;;;;;;5006078;28;51587;-71
2023/06/13 12:29:03;;;;;;;;;16.33;16.33;;;;;;;;5024693;28;51070;-73
2023/06/13 12:31:34;;;;;;;;;12.00;12.00;;;;;;;;5017702;28;51734;-73
2023/06/13 12:34:06;;;;;;;;;13.67;13.67;;;;;;;;5031481;28;52730;-73
2023/06/13 12:36:44;;;;;;;;;15.67;15.33;;;;;;;;5029606;28;51213;-73
2023/06/13 12:39:09;;;;;;;;;15.00;15.00;;;;;;;;5022164;28;51008;-71
2023/06/13 12:41:35;;;;;;;;;16.00;16.00;;;;;;;;5010321;28;51119;-72
2023/06/13 12:44:00;;;;;;;;;15.33;14.33;;;;;;;;5011412;28;51196;-71
2023/06/13 12:46:25;;;;;;;;;16.00;15.00;;;;;;;;5011835;28;51112;-72
2023/06/13 12:48:51;;;;;;;;;16.33;16.00;;;;;;;;5014945;28;51310;-71
2023/06/13 12:51:26;;;;;;;;;12.33;12.33;;;;;;;;5031769;28;51108;-71
2023/06/13 12:53:51;;;;;;;;;17.00;16.33;;;;;;;;5026583;28;51810;-72
2023/06/13 12:56:16;;;;;;;;;14.00;14.00;;;;;;;;5016675;28;51234;-72
2023/06/13 12:58:42;;;;;;;;;15.00;14.00;;;;;;;;5031223;28;51385;-73
2023/06/13 13:01:07;;;;;;;;;14.33;14.33;;;;;;;;5029851;28;51105;-72
2023/06/13 13:03:33;;;;;;;;;14.67;13.67;;;;;;;;5015860;28;52463;-72
2023/06/13 13:05:59;;;;;;;;;16.33;16.00;;;;;;;;5029623;28;51020;-72
2023/06/13 13:08:24;;;;;;;;;17.00;16.33;;;;;;;;5018769;28;51162;-72
2023/06/13 13:10:50;;;;;;;;;15.33;14.33;;;;;;;;5018648;28;51601;-73
2023/06/13 13:13:16;;;;;;;;;13.00;13.00;;;;;;;;5010847;28;51709;-72
2023/06/13 13:15:41;;;;;;;;;16.33;16.33;;;;;;;;5010493;28;51338;-72
2023/06/13 13:18:07;;;;;;;;;14.00;13.67;;;;;;;;5011560;28;51104;-71
2023/06/13 13:20:32;;;;;;;;;14.67;13.67;;;;;;;;5010509;28;51148;-72
2023/06/13 13:22:57;;;;;;;;;16.00;15.50;;;;;;;;5008587;28;53923;-72
2023/06/13 13:25:22;;;;;;;;;17.00;16.00;;;;;;;;5013017;28;51057;-72
2023/06/13 13:27:48;;;;;;;;;15.67;14.33;;;;;;;;5012269;28;51448;-72
2023/06/13 13:30:14;;;;;;;;;13.00;12.67;;;;;;;;5012133;28;51402;-72
2023/06/13 13:32:39;;;;;;;;;13.33;13.33;;;;;;;;5013059;28;52980;-72
2023/06/13 13:35:04;;;;;;;;;16.67;16.33;;;;;;;;5016492;28;51148;-72
2023/06/13 13:37:30;;;;;;;;;16.33;16.33;;;;;;;;5030095;28;51222;-72
2023/06/13 13:39:55;;;;;;;;;13.33;13.33;;;;;;;;5017623;28;51350;-71
2023/06/13 13:42:21;;;;;;;;;17.67;17.00;;;;;;;;5013203;28;52770;-72
2023/06/13 13:44:47;;;;;;;;;17.33;17.33;;;;;;;;5025543;28;51030;-72
2023/06/13 13:47:12;;;;;;;;;18.67;17.00;;;;;;;;5014587;28;51049;-73
2023/06/13 13:49:38;;;;;;;;;16.00;15.00;;;;;;;;5013704;28;50987;-72
2023/06/13 13:52:03;;;;;;;;;16.67;16.67;;;;;;;;5021313;28;51864;-72
2023/06/13 13:54:29;;;;;;;;;21.00;18.00;;;;;;;;5031529;28;51149;-73
2023/06/13 13:56:54;;;;;;;;;15.00;15.00;;;;;;;;5032310;28;50991;-72
2023/06/13 13:59:19;;;;;;;;;18.67;18.67;;;;;;;;5032371;28;51029;-72
2023/06/13 14:01:45;;;;;;;;;16.00;15.25;;;;;;;;5029722;28;54411;-72
2023/06/13 14:04:13;;;;;;;;;20.00;19.33;;;;;;;;5019334;28;50987;-72
2023/06/13 14:06:38;;;;;;;;;16.00;16.00;;;;;;;;5023404;28;51058;-72
2023/06/13 14:09:04;;;;;;;;;19.50;18.75;;;;;;;;5024283;28;51204;-72
2023/06/13 14:11:29;;;;;;;;;18.00;17.33;;;;;;;;5016534;28;51181;-72